Terminal Aerodrome Forecast
Issued by NWS

Home | Current Version | Previous Version | Text Only | Print | Product List | Glossary On
Versions: 1 2 3 4 5 6 7 8 9 10 11 12 13 14 15 16 17 18 19 20
703
FTUS43 KAPX 052002 AAC
TAFTVC
TAF AMD
KTVC 052002Z 0520/0618 26008KT P6SM SCT030
     FM052300 22008KT P6SM BKN025
     FM060300 18007KT P6SM OVC015
     FM060700 17008KT P6SM BKN025
     FM060900 17008KT P6SM BKN035
     FM061200 16009KT P6SM BKN060
     FM061600 17013KT P6SM BKN080=

USA.gov is the U.S. government's official web portal to all federal, state and local government web resources and services.